Time;durP1;ratioP1;P1;durP2;ratioP2;P2;SDS_P1;SDS_P2;PMS_P1;PMS_P2;Temp;Humidity;BMP_temperature;BMP_pressure;BME280_temperature;BME280_humidity;BME280_pressure;Samples;Min_cycle;Max_cycle;Signal;HPM_P1;HPM_P2
2024/01/15 00:02:22;;;;;;;47.03;28.23;;;;;;;5.54;69.54;99814.69;5074767;28;20139;-81
2024/01/15 00:05:17;;;;;;;60.53;34.42;;;;;;;5.85;68.61;99802.09;5072119;28;20036;-81
2024/01/15 00:08:12;;;;;;;47.08;25.77;;;;;;;5.88;68.17;99801.53;5076442;28;20044;-81
2024/01/15 00:11:04;;;;;;;47.00;28.92;;;;;;;5.86;68.48;99801.00;5073760;28;20047;-81
2024/01/15 00:13:56;;;;;;;65.88;36.83;;;;;;;6.05;67.33;99800.03;5070859;28;20072;-81
2024/01/15 00:16:50;;;;;;;60.28;34.83;;;;;;;5.79;68.46;99786.38;5075288;28;20051;-80
2024/01/15 00:19:45;;;;;;;62.55;37.08;;;;;;;5.80;68.02;99788.72;5072773;28;20059;-81
2024/01/15 00:22:42;;;;;;;76.90;37.55;;;;;;;5.86;68.00;99784.81;5076658;28;20051;-81
2024/01/15 00:25:36;;;;;;;67.32;37.78;;;;;;;5.81;68.72;99798.44;5072494;28;20044;-80
2024/01/15 00:28:31;;;;;;;68.72;35.55;;;;;;;5.85;67.78;99788.63;5071595;28;20048;-79
2024/01/15 00:31:26;;;;;;;63.33;36.20;;;;;;;5.78;68.32;99782.06;5074970;28;20055;-79
2024/01/15 00:34:20;;;;;;;64.47;34.60;;;;;;;5.90;68.02;99785.81;5072253;28;20044;-81
2024/01/15 00:37:14;;;;;;;64.32;37.67;;;;;;;5.80;67.88;99786.03;5076259;28;20052;-80
2024/01/15 00:40:10;;;;;;;60.30;34.55;;;;;;;5.92;68.23;99789.03;5076117;28;20409;-81
2024/01/15 00:43:02;;;;;;;57.65;33.22;;;;;;;5.95;67.58;99784.91;5075426;28;20043;-80
2024/01/15 00:45:57;;;;;;;57.63;33.60;;;;;;;5.98;67.31;99779.72;5075487;28;20047;-81
2024/01/15 00:48:51;;;;;;;41.92;24.88;;;;;;;6.06;66.79;99767.34;5076954;28;20047;-81
2024/01/15 00:51:46;;;;;;;46.03;26.80;;;;;;;6.08;66.91;99767.06;5080444;28;20102;-80
2024/01/15 00:54:40;;;;;;;58.15;34.60;;;;;;;5.97;67.03;99763.81;5077167;28;20044;-80
2024/01/15 00:57:32;;;;;;;61.10;34.03;;;;;;;5.83;67.57;99758.47;5067139;28;20063;-81
2024/01/15 01:00:27;;;;;;;60.33;33.65;;;;;;;5.73;68.67;99756.00;5058728;28;20048;-81
2024/01/15 01:03:21;;;;;;;58.53;35.88;;;;;;;5.81;68.34;99765.25;5055958;28;20441;-81
2024/01/15 01:06:16;;;;;;;46.03;28.07;;;;;;;5.71;67.86;99760.09;5054179;28;20044;-80
2024/01/15 01:09:08;;;;;;;59.38;34.70;;;;;;;5.72;68.73;99773.28;5058141;28;20056;-80
2024/01/15 01:12:03;;;;;;;63.05;35.38;;;;;;;5.82;69.11;99764.16;5055434;28;20524;-80
2024/01/15 01:14:57;;;;;;;63.33;35.22;;;;;;;6.00;67.86;99755.91;5057291;28;20067;-79
2024/01/15 01:17:48;;;;;;;58.25;33.08;;;;;;;5.96;67.91;99746.81;5056778;28;20048;-80
2024/01/15 01:20:42;;;;;;;62.30;35.75;;;;;;;5.88;67.99;99747.56;5054694;28;20402;-81
2024/01/15 01:23:36;;;;;;;61.67;35.83;;;;;;;5.95;67.28;99742.53;5059398;28;20044;-80
2024/01/15 01:26:31;;;;;;;52.47;26.77;;;;;;;6.03;66.96;99740.19;5063365;28;20048;-79
2024/01/15 01:29:26;;;;;;;64.25;35.38;;;;;;;5.89;67.60;99734.88;5058829;28;20056;-80
2024/01/15 01:32:18;;;;;;;63.30;28.80;;;;;;;5.82;68.33;99716.41;5056809;28;20048;-79
2024/01/15 01:35:13;;;;;;;64.43;34.58;;;;;;;5.73;68.70;99720.16;5053545;28;20044;-79
2024/01/15 01:38:07;;;;;;;46.80;26.02;;;;;;;5.82;68.48;99723.69;5057425;28;20047;-80
2024/01/15 01:41:02;;;;;;;62.88;35.33;;;;;;;5.74;68.24;99716.34;5055554;28;20048;-80
2024/01/15 01:43:56;;;;;;;63.72;33.97;;;;;;;5.81;68.11;99712.09;5058645;28;20044;-80
2024/01/15 01:46:46;;;;;;;43.80;25.60;;;;;;;5.90;67.95;99717.56;5056626;28;20048;-80
2024/01/15 01:49:42;;;;;;;62.58;35.67;;;;;;;5.86;69.23;99709.28;5054326;28;20056;-80
2024/01/15 01:52:38;;;;;;;69.97;36.53;;;;;;;5.80;69.08;99709.72;5056545;28;20461;-80
2024/01/15 01:55:33;;;;;;;66.32;36.72;;;;;;;5.66;69.63;99696.31;5054952;28;20047;-80
2024/01/15 01:58:25;;;;;;;;;;;;;;;5.80;69.10;99693.53;5059306;28;20521;-79
2024/01/15 02:01:20;;;;;;;65.63;34.20;;;;;;;5.73;70.40;99695.88;5056232;28;19916;-80
2024/01/15 02:04:15;;;;;;;49.40;27.65;;;;;;;5.85;69.36;99685.31;5053432;28;20104;-80
2024/01/15 02:07:09;;;;;;;47.27;27.47;;;;;;;5.84;69.29;99687.19;5054720;28;20052;-80
2024/01/15 02:10:02;;;;;;;50.28;27.48;;;;;;;5.79;69.14;99678.47;5055416;28;20060;-80
2024/01/15 02:12:56;;;;;;;57.60;32.72;;;;;;;5.95;68.41;99675.06;5053122;28;20611;-80
2024/01/15 02:15:48;;;;;;;63.28;33.95;;;;;;;5.99;68.33;99659.84;5054103;28;20048;-80
2024/01/15 02:18:44;;;;;;;48.42;25.40;;;;;;;5.96;68.43;99665.88;5054524;28;20044;-80
2024/01/15 02:21:39;;;;;;;56.67;30.73;;;;;;;5.84;68.98;99659.44;5057546;28;20115;-80
2024/01/15 02:24:33;;;;;;;57.47;33.85;;;;;;;5.74;69.84;99646.22;5054957;28;20044;-79
2024/01/15 02:27:28;;;;;;;49.28;28.05;;;;;;;5.67;69.15;99640.47;5056841;28;20051;-80
2024/01/15 02:30:28;;;;;;;48.47;24.77;;;;;;;5.68;69.75;99636.66;5061822;28;20048;-81
2024/01/15 02:33:22;;;;;;;60.38;34.60;;;;;;;5.84;68.63;99635.94;5053857;28;20536;-80
2024/01/15 02:36:17;;;;;;;60.05;33.05;;;;;;;5.90;68.20;99623.94;5054962;28;20052;-80
2024/01/15 02:39:11;;;;;;;57.03;32.13;;;;;;;5.95;67.88;99631.09;5075256;28;20047;-80
2024/01/15 02:42:06;;;;;;;53.10;26.90;;;;;;;5.75;68.62;99632.41;5072725;28;20047;-80
2024/01/15 02:45:01;;;;;;;45.72;26.73;;;;;;;5.81;68.02;99633.88;5075888;28;20051;-80
2024/01/15 02:47:55;;;;;;;62.35;35.00;;;;;;;5.90;68.55;99629.34;5073535;28;20047;-79
2024/01/15 02:50:50;;;;;;;54.63;31.05;;;;;;;5.95;67.65;99642.69;5077144;28;20039;-80
2024/01/15 02:53:44;;;;;;;58.42;32.53;;;;;;;5.84;67.76;99635.94;5074962;28;20047;-79
2024/01/15 02:56:39;;;;;;;57.95;33.83;;;;;;;5.66;68.44;99642.38;5078052;28;20039;-79
2024/01/15 02:59:33;;;;;;;38.55;22.15;;;;;;;5.74;68.64;99641.59;5075967;28;20425;-78
2024/01/15 03:02:31;;;;;;;44.30;24.70;;;;;;;5.86;67.54;99643.75;5073005;28;20047;-79
2024/01/15 03:05:23;;;;;;;56.95;31.38;;;;;;;5.69;68.51;99633.66;5074090;28;20664;-78
2024/01/15 03:08:17;;;;;;;59.47;31.42;;;;;;;5.74;68.39;99641.59;5074255;28;20044;-78
2024/01/15 03:11:12;;;;;;;46.58;26.52;;;;;;;5.65;68.08;99643.47;5072046;28;20051;-79
2024/01/15 03:14:06;;;;;;;55.88;32.10;;;;;;;5.69;67.62;99632.88;5074839;28;20512;-79
2024/01/15 03:17:01;;;;;;;53.57;25.43;;;;;;;5.62;67.35;99627.91;5073335;28;20060;-79
2024/01/15 03:19:56;;;;;;;46.25;24.42;;;;;;;5.74;67.18;99628.13;5076714;28;20412;-79
2024/01/15 03:22:50;;;;;;;55.47;31.15;;;;;;;5.86;66.38;99625.66;5074358;28;20425;-80
2024/01/15 03:25:44;;;;;;;60.25;33.60;;;;;;;5.89;66.16;99618.88;5071981;28;20044;-79
2024/01/15 03:28:39;;;;;;;43.38;23.67;;;;;;;5.66;66.32;99606.50;5075503;28;20052;-79
2024/01/15 03:31:34;;;;;;;42.20;25.85;;;;;;;5.81;65.48;99612.31;5073240;28;20516;-80
2024/01/15 03:34:28;;;;;;;39.50;23.07;;;;;;;5.75;65.51;99599.25;5076111;28;20047;-80
2024/01/15 03:37:20;;;;;;;46.72;24.98;;;;;;;5.67;65.71;99597.31;5074109;28;20048;-80
2024/01/15 03:40:16;;;;;;;54.85;31.85;;;;;;;5.78;64.30;99571.69;5071869;28;20111;-79
2024/01/15 03:43:10;;;;;;;43.78;24.13;;;;;;;5.82;64.46;99570.75;5075499;28;20044;-79
2024/01/15 03:46:05;;;;;;;54.05;32.08;;;;;;;5.82;64.53;99567.25;5072025;28;20102;-79
2024/01/15 03:48:57;;;;;;;49.35;24.27;;;;;;;5.76;64.78;99565.78;5076147;28;20043;-79
2024/01/15 03:51:52;;;;;;;53.13;31.80;;;;;;;5.84;64.97;99568.50;5074046;28;20051;-80
2024/01/15 03:54:44;;;;;;;40.67;23.20;;;;;;;5.67;65.58;99570.34;5071375;28;20047;-80
2024/01/15 03:57:38;;;;;;;53.75;31.23;;;;;;;5.71;65.98;99558.63;5075594;28;20051;-79
2024/01/15 04:00:33;;;;;;;39.75;24.38;;;;;;;5.83;65.15;99547.25;5073151;28;20401;-79
2024/01/15 04:03:27;;;;;;;57.95;31.52;;;;;;;5.94;63.86;99548.59;5076174;28;20051;-78
2024/01/15 04:06:22;;;;;;;54.72;32.17;;;;;;;5.85;64.08;99548.53;5070781;28;20047;-79
2024/01/15 04:09:16;;;;;;;61.88;32.28;;;;;;;5.83;63.69;99547.25;5071740;28;20043;-79
2024/01/15 04:12:11;;;;;;;45.37;25.17;;;;;;;5.83;64.51;99536.47;5062528;28;20409;-80
2024/01/15 04:15:06;;;;;;;40.67;23.67;;;;;;;5.77;65.03;99532.31;5051640;28;20314;-80
2024/01/15 04:18:00;;;;;;;42.88;24.33;;;;;;;5.68;64.97;99532.28;5050747;28;20517;-79
2024/01/15 04:20:55;;;;;;;56.55;31.38;;;;;;;5.65;64.91;99534.78;5055409;28;20064;-79
2024/01/15 04:23:49;;;;;;;59.63;32.58;;;;;;;5.73;65.02;99526.75;5055222;28;20035;-79
2024/01/15 04:26:44;;;;;;;42.57;24.20;;;;;;;5.64;65.63;99517.06;5068456;28;20043;-78
2024/01/15 04:29:40;;;;;;;44.58;24.60;;;;;;;5.62;65.34;99513.88;5062059;28;20532;-80
2024/01/15 04:32:29;;;;;;;;;;;;;;;5.74;64.98;99527.56;5066672;28;20063;-80
2024/01/15 04:35:24;;;;;;;51.42;28.02;;;;;;;5.84;64.63;99521.88;5057662;28;19920;-80
2024/01/15 04:38:18;;;;;;;37.08;22.58;;;;;;;5.85;63.74;99521.53;5062129;28;20056;-79
2024/01/15 04:41:14;;;;;;;54.58;30.27;;;;;;;5.83;63.50;99520.28;5075360;28;20048;-80
2024/01/15 04:44:08;;;;;;;52.40;31.15;;;;;;;5.88;63.99;99518.28;5074039;28;20063;-80
2024/01/15 04:47:03;;;;;;;44.47;24.48;;;;;;;5.88;63.64;99518.28;5055942;28;20047;-81
2024/01/15 04:49:58;;;;;;;41.22;25.15;;;;;;;6.07;63.01;99515.28;5074280;28;20535;-80
2024/01/15 04:52:53;;;;;;;47.60;25.60;;;;;;;5.99;63.09;99511.44;5072319;28;20047;-80
2024/01/15 04:55:47;;;;;;;57.58;31.85;;;;;;;5.96;62.58;99512.09;5072123;28;20048;-80
2024/01/15 04:58:39;;;;;;;54.55;30.90;;;;;;;5.93;63.02;99503.84;5072994;28;20051;-80
2024/01/15 05:01:34;;;;;;;53.33;32.13;;;;;;;5.88;62.96;99507.47;5070688;28;20528;-80
2024/01/15 05:04:29;;;;;;;52.83;29.83;;;;;;;5.92;63.35;99489.56;5068394;28;20040;-80
2024/01/15 05:07:23;;;;;;;40.42;24.50;;;;;;;5.83;63.03;99494.09;5053773;28;20043;-81
2024/01/15 05:10:18;;;;;;;39.23;23.07;;;;;;;5.83;63.36;99487.91;5066238;28;20060;-79
2024/01/15 05:13:13;;;;;;;45.22;25.70;;;;;;;5.81;62.70;99485.53;5073111;28;20047;-80
2024/01/15 05:16:07;;;;;;;50.47;29.85;;;;;;;5.86;63.34;99482.69;5070993;28;20409;-80
2024/01/15 05:19:02;;;;;;;55.53;30.35;;;;;;;5.86;63.37;99481.88;5065117;28;20052;-79
2024/01/15 05:21:57;;;;;;;42.83;24.27;;;;;;;5.88;63.55;99475.09;5062309;28;20044;-81
2024/01/15 05:24:51;;;;;;;44.30;23.50;;;;;;;5.85;63.05;99464.09;5069580;28;20043;-80
2024/01/15 05:27:46;;;;;;;52.10;31.45;;;;;;;5.70;63.94;99478.03;5056133;28;20052;-79
2024/01/15 05:30:40;;;;;;;55.95;30.75;;;;;;;5.61;65.04;99475.31;5054384;28;20048;-79
2024/01/15 05:33:35;;;;;;;56.95;31.83;;;;;;;5.65;64.90;99467.38;5062445;28;20039;-80
2024/01/15 05:36:30;;;;;;;61.65;32.03;;;;;;;5.69;65.66;99458.34;5063577;28;20059;-78
2024/01/15 05:39:24;;;;;;;52.03;24.48;;;;;;;5.61;65.15;99445.66;5059983;28;20036;-80
2024/01/15 05:42:19;;;;;;;43.60;25.37;;;;;;;5.54;64.49;99450.69;5065015;28;20047;-79
2024/01/15 05:45:11;;;;;;;45.87;27.13;;;;;;;5.64;64.61;99446.94;5066612;28;20044;-79
2024/01/15 05:48:06;;;;;;;57.65;30.08;;;;;;;5.65;64.69;99443.91;5075099;28;20531;-80
2024/01/15 05:51:00;;;;;;;54.90;32.00;;;;;;;5.63;65.22;99429.97;5075584;28;20055;-79
2024/01/15 05:53:55;;;;;;;42.90;24.58;;;;;;;5.72;64.88;99440.75;5079994;28;20439;-79
2024/01/15 05:56:50;;;;;;;38.88;23.00;;;;;;;5.72;65.57;99438.88;5076247;28;20119;-79
2024/01/15 05:59:44;;;;;;;35.93;22.93;;;;;;;5.67;66.20;99428.22;5076071;28;20055;-80
2024/01/15 06:02:39;;;;;;;41.10;23.80;;;;;;;5.78;64.96;99428.72;5079770;28;20044;-78
2024/01/15 06:05:34;;;;;;;56.22;31.33;;;;;;;5.70;66.11;99435.66;5073657;28;20036;-78
2024/01/15 06:08:26;;;;;;;60.90;32.45;;;;;;;5.69;66.30;99441.41;5074708;28;20048;-79
2024/01/15 06:11:18;;;;;;;41.67;26.60;;;;;;;5.71;66.18;99448.06;5057250;28;20055;-80
2024/01/15 06:14:10;;;;;;;60.05;31.98;;;;;;;5.73;65.87;99451.25;5054115;28;20056;-79
2024/01/15 06:17:04;;;;;;;61.58;34.35;;;;;;;5.70;65.89;99451.84;5058123;28;20517;-78
2024/01/15 06:19:56;;;;;;;55.65;31.60;;;;;;;5.75;65.67;99449.00;5055499;28;20509;-80
2024/01/15 06:22:51;;;;;;;56.90;31.88;;;;;;;5.85;65.78;99446.00;5053464;28;20536;-81
2024/01/15 06:25:46;;;;;;;41.22;23.95;;;;;;;6.03;65.12;99444.19;5054609;28;20052;-81
2024/01/15 06:28:38;;;;;;;45.13;25.75;;;;;;;6.07;65.12;99449.72;5056343;28;20409;-81
2024/01/15 06:31:30;;;;;;;55.05;33.17;;;;;;;6.35;66.55;99451.00;5058776;28;20048;-80
2024/01/15 06:34:25;;;;;;;58.28;32.25;;;;;;;4.96;68.04;99454.44;5057490;28;20048;-79
2024/01/15 06:37:18;;;;;;;57.90;30.90;;;;;;;4.60;69.48;99454.53;5072007;28;20052;-79
2024/01/15 06:40:16;;;;;;;57.42;30.90;;;;;;;4.53;69.76;99446.06;5068318;28;20047;-78
2024/01/15 06:43:15;;;;;;;58.10;33.67;;;;;;;4.48;69.87;99438.13;5064374;28;20048;-78
2024/01/15 06:46:10;;;;;;;63.45;33.17;;;;;;;4.18;70.95;99436.94;5068716;28;20050;-79
2024/01/15 06:49:02;;;;;;;64.78;35.83;;;;;;;3.84;72.52;99439.34;5077979;28;20559;-78
2024/01/15 06:51:56;;;;;;;60.03;34.47;;;;;;;4.29;71.52;99434.81;5063219;28;20052;-78
2024/01/15 06:54:48;;;;;;;60.70;34.20;;;;;;;4.55;70.22;99448.47;5063215;28;20511;-79
2024/01/15 06:57:43;;;;;;;64.43;33.95;;;;;;;4.74;69.99;99454.44;5067381;28;20523;-79
2024/01/15 07:00:35;;;;;;;64.63;35.20;;;;;;;4.94;69.52;99448.53;5063419;28;20044;-78
2024/01/15 07:03:24;;;;;;;;;;;;;;;5.07;69.21;99445.00;5061067;28;20052;-77
2024/01/15 07:06:17;;;;;;;;;;;;;;;5.18;69.99;99443.59;5064091;28;20316;-78
2024/01/15 07:09:09;;;;;;;;;;;;;;;5.34;68.53;99440.47;5072439;28;19912;-75
2024/01/15 07:12:04;;;;;;;;;;;;;;;5.40;68.22;99441.94;5064555;28;20376;-76
2024/01/15 07:14:56;;;;;;;;;;;;;;;5.33;68.66;99447.00;5065833;28;20686;-76
2024/01/15 07:17:48;;;;;;;;;;;;;;;5.49;68.28;99434.66;5065781;28;19913;-77
2024/01/15 07:20:40;;;;;;;;;;;;;;;5.47;67.94;99444.97;5063413;28;19920;-77
2024/01/15 07:23:33;;;;;;;;;;;;;;;5.56;67.91;99456.59;5056904;28;19916;-77
2024/01/15 07:26:25;;;;;;;;;;;;;;;5.64;67.39;99460.41;5075068;28;19916;-77
2024/01/15 07:29:15;;;;;;;;;;;;;;;5.71;67.62;99460.75;5071857;28;19916;-77
2024/01/15 07:32:07;;;;;;;;;;;;;;;5.84;66.91;99454.44;5072002;28;19916;-77
2024/01/15 07:34:59;;;;;;;;;;;;;;;6.15;66.25;99455.13;5063633;28;19916;-77
2024/01/15 07:37:51;;;;;;;;;;;;;;;5.66;67.35;99458.19;5062016;28;19913;-76
2024/01/15 07:40:43;;;;;;;;;;;;;;;5.81;66.05;99458.53;5057895;28;19912;-76
2024/01/15 07:43:36;;;;;;;;;;;;;;;5.59;66.76;99467.53;5073033;28;20288;-76
2024/01/15 07:46:25;;;;;;;;;;;;;;;5.77;66.32;99456.81;5061500;28;19917;-78
2024/01/15 07:49:17;;;;;;;;;;;;;;;5.90;65.70;99458.59;5063131;28;19912;-77
2024/01/15 07:52:12;;;;;;;;;;;;;;;5.73;66.41;99450.44;5061367;28;19919;-78
2024/01/15 07:55:04;;;;;;;;;;;;;;;5.91;65.84;99466.38;5067637;28;20396;-80
2024/01/15 07:57:58;;;;;;;;;;;;;;;5.77;65.01;99473.78;5070607;28;20293;-79
2024/01/15 08:00:50;;;;;;;;;;;;;;;5.77;64.92;99468.38;5055954;28;20324;-79
2024/01/15 08:03:42;;;;;;;;;;;;;;;5.28;66.25;99463.31;5074147;28;19912;-76
2024/01/15 08:06:32;;;;;;;;;;;;;;;5.00;67.23;99460.78;5072336;28;19912;-76
2024/01/15 08:09:25;;;;;;;;;;;;;;;4.98;68.09;99467.56;5071371;28;19943;-77
2024/01/15 08:12:15;;;;;;;;;;;;;;;5.03;68.92;99470.94;5070515;28;19920;-78
2024/01/15 08:15:07;;;;;;;;;;;;;;;4.93;70.19;99471.19;5051203;28;19921;-79
2024/01/15 08:17:59;;;;;;;;;;;;;;;4.83;70.47;99460.66;5066773;28;19916;-77
2024/01/15 08:20:51;;;;;;;;;;;;;;;4.81;70.70;99468.28;5068909;28;20308;-79
2024/01/15 08:23:43;;;;;;;;;;;;;;;5.23;69.55;99469.63;5063597;28;19916;-78
2024/01/15 08:26:35;;;;;;;;;;;;;;;5.70;66.63;99465.34;5061761;28;19913;-79
2024/01/15 08:29:24;;;;;;;;;;;;;;;6.06;65.18;99475.13;5057373;28;19916;-79
2024/01/15 08:32:16;;;;;;;;;;;;;;;6.26;64.31;99479.91;5060049;28;19917;-77
2024/01/15 08:35:08;;;;;;;;;;;;;;;6.60;62.72;99468.31;5059064;28;19917;-79
2024/01/15 08:37:58;;;;;;;;;;;;;;;6.97;61.24;99466.81;5065719;28;19917;-77
2024/01/15 08:40:51;;;;;;;;;;;;;;;7.16;60.51;99464.56;5057205;28;19917;-77
2024/01/15 08:43:40;;;;;;;;;;;;;;;7.31;59.76;99461.34;5056888;28;20511;-77
2024/01/15 08:46:29;;;;;;;;;;;;;;;7.40;58.95;99464.00;5051520;28;19916;-79
2024/01/15 08:49:21;;;;;;;;;;;;;;;7.62;58.65;99466.41;5059301;28;19913;-78
2024/01/15 08:52:13;;;;;;;;;;;;;;;7.90;58.31;99467.56;5058735;28;19924;-78
2024/01/15 08:55:05;;;;;;;;;;;;;;;8.04;58.00;99470.81;5057730;28;20377;-78
2024/01/15 08:57:58;;;;;;;;;;;;;;;8.26;56.48;99460.78;5053441;28;19917;-78
2024/01/15 09:00:50;;;;;;;;;;;;;;;8.00;56.83;99455.53;5058292;28;19916;-78
2024/01/15 09:03:42;;;;;;;;;;;;;;;8.12;55.51;99451.00;5059232;28;20285;-78
2024/01/15 09:06:34;;;;;;;;;;;;;;;8.10;55.35;99441.63;5061038;28;19917;-78
2024/01/15 09:09:26;;;;;;;;;;;;;;;7.98;56.11;99461.28;5060103;28;19913;-78
2024/01/15 09:12:18;;;;;;;;;;;;;;;8.22;55.53;99455.25;5059452;28;19913;-79
2024/01/15 09:15:10;;;;;;;;;;;;;;;8.70;54.14;99459.31;5063348;28;19917;-79
2024/01/15 09:18:02;;;;;;;;;;;;;;;8.60;53.42;99446.97;5070215;28;19912;-80
2024/01/15 09:20:53;;;;;;;;;;;;;;;9.12;52.44;99446.44;5060535;28;19916;-80
2024/01/15 09:23:45;;;;;;;;;;;;;;;9.10;52.12;99462.25;5058284;28;19917;-80
2024/01/15 09:26:37;;;;;;;;;;;;;;;8.69;53.44;99446.88;5063062;28;20321;-80
2024/01/15 09:29:29;;;;;;;;;;;;;;;8.61;53.53;99447.75;5063997;28;19917;-81
2024/01/15 09:32:21;;;;;;;;;;;;;;;7.91;55.92;99460.22;5059295;28;19913;-81
2024/01/15 09:35:11;;;;;;;;;;;;;;;8.32;55.89;99463.00;5074821;28;20099;-80
2024/01/15 09:38:03;;;;;;;;;;;;;;;8.75;54.97;99454.47;5064328;28;19912;-80
2024/01/15 09:41:00;;;;;;;;;;;;;;;9.33;52.62;99456.09;5064714;28;19916;-80
2024/01/15 09:43:52;;;;;;;;;;;;;;;10.14;51.12;99441.56;5060905;28;19912;-80
2024/01/15 09:46:49;;;;;;;;;;;;;;;11.04;48.24;99459.25;5068036;28;20377;-80
2024/01/15 09:49:38;;;;;;;;;;;;;;;11.82;45.67;99464.72;5060143;28;20386;-80
2024/01/15 09:52:30;;;;;;;;;;;;;;;12.20;44.74;99455.03;5065214;28;19916;-80
2024/01/15 09:55:23;;;;;;;;;;;;;;;12.48;44.33;99446.69;5061755;28;19916;-80
2024/01/15 09:58:15;;;;;;;;;;;;;;;12.41;44.30;99447.31;5069235;28;19916;-80
2024/01/15 10:01:07;;;;;;;;;;;;;;;11.87;44.94;99452.78;5059401;28;19917;-79
2024/01/15 10:03:59;;;;;;;;;;;;;;;11.75;45.92;99445.50;5058101;28;19913;-79
2024/01/15 10:06:52;;;;;;;;;;;;;;;11.52;46.27;99445.31;5065781;28;19916;-79
2024/01/15 10:09:44;;;;;;;;;;;;;;;10.95;47.43;99437.66;5059238;28;20354;-79
2024/01/15 10:12:36;;;;;;;;;;;;;;;11.09;46.97;99429.84;5064211;28;20317;-79
2024/01/15 10:15:28;;;;;;;;;;;;;;;11.04;47.70;99427.38;5065631;28;19916;-79
2024/01/15 10:18:20;;;;;;;;;;;;;;;10.83;47.13;99421.38;5058658;28;19920;-80
2024/01/15 10:21:12;;;;;;;;;;;;;;;10.33;48.75;99411.09;5059043;28;19917;-79
2024/01/15 10:24:07;;;;;;;;;;;;;;;10.78;48.26;99413.47;5055720;28;20301;-79
2024/01/15 10:27:07;;;;;;;;;;;;;;;17.32;34.67;99407.25;5062296;28;20305;-79
2024/01/15 10:29:54;;;;;;;;;;;;;;;19.90;30.66;99402.56;5070557;28;19912;-81
2024/01/15 10:32:59;;;;;;;;;;;;;;;17.17;32.56;99394.69;5058318;28;19916;-79
2024/01/15 10:35:50;;;;;;;;;;;;;;;16.87;33.06;99389.56;5067297;28;19924;-79
2024/01/15 10:38:41;;;;;;;;;;;;;;;15.15;35.64;99379.97;5061582;28;20212;-79
2024/01/15 10:41:34;;;;;;;;;;;;;;;15.13;36.54;99379.59;5062710;28;19920;-81
2024/01/15 10:44:25;;;;;;;;;;;;;;;13.28;40.00;99372.97;5057214;28;19913;-81
2024/01/15 10:47:15;;;;;;;;;;;;;;;13.17;40.51;99366.53;5069078;28;19916;-81
2024/01/15 10:50:07;;;;;;;;;;;;;;;13.04;40.59;99370.59;5069659;28;19916;-80
2024/01/15 10:52:59;;;;;;;;;;;;;;;13.19;40.53;99367.75;5067617;28;19912;-81
2024/01/15 10:55:52;;;;;;;;;;;;;;;12.63;41.55;99364.00;5065221;28;19942;-80
2024/01/15 10:58:45;;;;;;;;;;;;;;;12.42;42.59;99358.94;5063390;28;19913;-80
2024/01/15 11:01:34;;;;;;;;;;;;;;;12.43;43.40;99344.97;5057719;28;19917;-79
2024/01/15 11:04:26;;;;;;;;;;;;;;;11.82;43.41;99355.78;5060486;28;19912;-79
2024/01/15 11:07:21;;;;;;;;;;;;;;;10.93;47.15;99360.25;5054721;28;20720;-79
2024/01/15 11:10:28;;;;;;;;;;;;;;;11.03;46.67;99351.56;5060473;28;19913;-80
2024/01/15 11:13:20;;;;;;;;;;;;;;;11.07;48.29;99347.78;5063039;28;19912;-79
2024/01/15 11:16:12;;;;;;;;;;;;;;;11.02;48.87;99341.84;5059400;28;19920;-79
2024/01/15 11:19:02;;;;;;;;;;;;;;;10.38;51.79;99339.41;5057033;28;19917;-80
2024/01/15 11:21:52;;;;;;;;;;;;;;;10.93;51.17;99342.00;5058338;28;19920;-79
2024/01/15 11:24:44;;;;;;;;;;;;;;;10.98;50.67;99333.59;5057263;28;19912;-79
2024/01/15 11:27:55;;;;;;;;;;;;;;;11.70;48.65;99333.28;5071452;28;19913;-80
2024/01/15 11:30:44;;;;;;;;;;;;;;;10.41;53.27;99330.56;5069841;28;19916;-80
2024/01/15 11:33:45;;;;;;;;;;;;;;;11.33;50.13;99336.34;5063243;28;20401;-80
2024/01/15 11:36:56;;;;;;;;;;;;;;;12.59;46.99;99333.16;5058422;28;19920;-80
2024/01/15 11:39:51;;;;;;;;;;;;;;;14.60;41.59;99327.06;5061897;28;19916;-80
2024/01/15 11:42:46;;;;;;;50.30;28.88;;;;;;;14.10;43.24;99325.72;5059549;28;20434;-79
2024/01/15 11:45:41;;;;;;;44.90;26.58;;;;;;;12.83;45.22;99314.50;5054436;28;20044;-79
2024/01/15 11:48:43;;;;;;;34.55;19.95;;;;;;;16.01;39.01;99304.59;5061619;28;20052;-80
2024/01/15 11:51:39;;;;;;;35.00;22.83;;;;;;;23.23;26.59;99291.53;5062287;28;20520;-80
2024/01/15 11:54:32;;;;;;;;;;;;;;;24.00;24.42;99282.34;5064347;28;20532;-80
2024/01/15 11:57:34;;;;;;;27.35;19.60;;;;;;;25.80;21.60;99278.47;5058646;28;19921;-80
2024/01/15 12:00:29;;;;;;;56.03;19.65;;;;;;;26.88;19.73;99271.16;5060809;28;20039;-80
2024/01/15 12:03:25;;;;;;;29.95;18.02;;;;;;;28.35;18.95;99281.09;5067260;28;20044;-81
2024/01/15 12:06:20;;;;;;;26.63;16.92;;;;;;;26.79;20.05;99259.97;5056433;28;20035;-80
2024/01/15 12:09:12;;;;;;;30.75;17.27;;;;;;;27.87;18.99;99252.94;5064459;28;20063;-80
2024/01/15 12:12:12;;;;;;;23.63;15.07;;;;;;;26.75;20.19;99237.03;5061399;28;20524;-80
2024/01/15 12:15:06;;;;;;;24.35;15.85;;;;;;;26.76;19.37;99221.84;5063108;28;20044;-80
2024/01/15 12:18:02;;;;;;;26.02;16.08;;;;;;;27.98;18.24;99218.94;5068193;28;20052;-80
2024/01/15 12:20:59;;;;;;;27.98;16.60;;;;;;;27.77;18.10;99205.94;5056271;28;20040;-80
2024/01/15 12:23:52;;;;;;;32.17;17.75;;;;;;;25.88;19.92;99190.66;5061579;28;20051;-80
2024/01/15 12:26:46;;;;;;;31.70;20.15;;;;;;;26.32;20.04;99193.34;5061160;28;20047;-80
2024/01/15 12:29:34;;;;;;;27.58;18.33;;;;;;;26.79;19.64;99190.22;5054707;28;20055;-80
2024/01/15 12:32:32;;;;;;;33.42;18.85;;;;;;;28.30;18.06;99206.25;5065856;28;20059;-80
2024/01/15 12:35:26;;;;;;;27.02;18.60;;;;;;;24.98;20.81;99205.44;5058455;28;20047;-80
2024/01/15 12:38:23;;;;;;;29.08;19.27;;;;;;;21.47;24.76;99193.81;5069223;28;20056;-81
2024/01/15 12:41:13;;;;;;;;;;;;;;;21.65;24.56;99183.16;5067234;28;20044;-80
2024/01/15 12:44:03;;;;;;;29.48;18.90;;;;;;;24.40;22.27;99174.38;5065142;28;19916;-81
2024/01/15 12:46:59;;;;;;;36.67;22.33;;;;;;;23.95;22.66;99184.91;5068095;28;20040;-80
2024/01/15 12:49:59;;;;;;;35.60;21.08;;;;;;;25.72;21.12;99165.03;5072559;28;20040;-81
2024/01/15 12:52:54;;;;;;;38.45;24.13;;;;;;;25.14;22.01;99162.78;5071723;28;20052;-81
2024/01/15 12:55:48;;;;;;;43.33;25.58;;;;;;;25.43;21.40;99156.94;5069142;28;20052;-80
2024/01/15 12:58:41;;;;;;;37.97;23.38;;;;;;;24.62;22.25;99158.56;5067407;28;20048;-82
2024/01/15 13:01:35;;;;;;;47.30;24.35;;;;;;;23.62;22.73;99145.44;5070039;28;20055;-80
2024/01/15 13:04:28;;;;;;;36.90;23.40;;;;;;;21.95;25.22;99148.94;5065804;28;20051;-80
2024/01/15 13:07:22;;;;;;;39.75;24.58;;;;;;;20.73;27.37;99146.22;5065542;28;20048;-79
2024/01/15 13:10:17;;;;;;;50.95;26.20;;;;;;;19.85;28.36;99135.38;5063994;28;20048;-81
2024/01/15 13:13:11;;;;;;;49.27;26.13;;;;;;;19.49;29.36;99123.25;5057084;28;20048;-80
2024/01/15 13:16:04;;;;;;;38.55;24.20;;;;;;;20.54;27.73;99119.31;5061711;28;20528;-79
2024/01/15 13:18:58;;;;;;;45.35;26.23;;;;;;;20.67;27.88;99107.22;5066829;28;20983;-79
2024/01/15 13:21:53;;;;;;;48.78;28.25;;;;;;;21.27;26.48;99106.13;5069744;28;20051;-79
2024/01/15 13:24:48;;;;;;;55.78;24.42;;;;;;;23.47;24.26;99099.91;5065411;28;20760;-80
2024/01/15 13:27:38;;;;;;;37.55;25.08;;;;;;;21.43;26.69;99093.56;5059707;28;20039;-79
2024/01/15 13:30:37;;;;;;;45.97;28.00;;;;;;;21.36;26.60;99094.47;5065931;28;20033;-79
2024/01/15 13:33:32;;;;;;;51.65;28.20;;;;;;;20.65;28.07;99103.34;5061330;28;20528;-79
2024/01/15 13:36:27;;;;;;;47.42;27.67;;;;;;;19.08;30.19;99087.53;5064279;28;20048;-80
2024/01/15 13:39:24;;;;;;;48.00;27.52;;;;;;;20.59;28.28;99094.75;5057499;28;20049;-80
2024/01/15 13:42:16;;;;;;;37.10;22.50;;;;;;;19.74;29.21;99078.78;5058692;28;20047;-80
2024/01/15 13:45:11;;;;;;;40.80;22.80;;;;;;;19.45;29.38;99095.75;5051214;28;20060;-79
2024/01/15 13:48:03;;;;;;;36.42;19.50;;;;;;;19.82;28.91;99091.28;5068102;28;20040;-79
2024/01/15 13:50:58;;;;;;;44.80;27.85;;;;;;;19.34;29.51;99089.56;5050117;28;20045;-80
2024/01/15 13:53:50;;;;;;;46.50;28.20;;;;;;;18.29;31.43;99103.22;5065393;28;20115;-79
2024/01/15 13:56:49;;;;;;;29.92;18.08;;;;;;;19.50;29.65;99100.81;5065536;28;20040;-79
2024/01/15 13:59:41;;;;;;;41.40;25.33;;;;;;;19.00;30.07;99089.56;5063636;28;20515;-78